Time;durP1;ratioP1;P1;durP2;ratioP2;P2;SDS_P1;SDS_P2;PMS_P1;PMS_P2;Temp;Humidity;BMP_temperature;BMP_pressure;BME280_temperature;BME280_humidity;BME280_pressure;Samples;Min_cycle;Max_cycle;Signal;HPM_P1;HPM_P2
2023/10/16 00:00:36;;;;;;;4.17;2.43;;;;;;;5.35;100.00;98760.03;5073527;28;20693;-75
2023/10/16 00:03:02;;;;;;;4.80;2.67;;;;;;;5.31;100.00;98750.81;5073834;28;20185;-75
2023/10/16 00:05:38;;;;;;;3.90;2.60;;;;;;;5.21;100.00;98745.72;5073805;28;20208;-75
2023/10/16 00:08:06;;;;;;;4.63;2.70;;;;;;;5.37;100.00;98739.59;5073675;28;20238;-75
2023/10/16 00:10:35;;;;;;;4.00;3.00;;;;;;;5.30;100.00;98749.19;5073633;28;20254;-75
2023/10/16 00:13:05;;;;;;;4.17;2.87;;;;;;;5.27;100.00;98744.22;5073395;28;20332;-75
2023/10/16 00:15:44;;;;;;;4.83;2.73;;;;;;;5.19;100.00;98744.25;5073391;28;20195;-75
2023/10/16 00:18:17;;;;;;;6.80;3.30;;;;;;;5.15;100.00;98743.78;5073568;28;20224;-75
2023/10/16 00:20:44;;;;;;;3.70;2.80;;;;;;;5.22;100.00;98736.00;5073688;28;20288;-75
2023/10/16 00:23:11;;;;;;;5.63;3.10;;;;;;;5.11;100.00;98734.56;5073550;28;20204;-75
2023/10/16 00:25:43;;;;;;;5.33;3.13;;;;;;;5.20;100.00;98738.81;5073518;28;20207;-75
2023/10/16 00:28:10;;;;;;;4.40;2.80;;;;;;;5.13;100.00;98735.22;5073555;28;20242;-75
2023/10/16 00:30:38;;;;;;;4.17;2.80;;;;;;;5.14;100.00;98734.22;5074317;28;20214;-75
2023/10/16 00:33:10;;;;;;;5.10;2.90;;;;;;;5.19;100.00;98738.97;5073372;28;20232;-75
2023/10/16 00:35:41;;;;;;;5.23;3.27;;;;;;;5.21;100.00;98729.91;5073448;28;20216;-75
2023/10/16 00:38:13;;;;;;;4.30;2.90;;;;;;;5.19;100.00;98731.06;5073462;28;20342;-75
2023/10/16 00:40:51;;;;;;;5.57;3.00;;;;;;;5.27;100.00;98738.97;5073509;28;20201;-75
2023/10/16 00:43:20;;;;;;;5.87;3.07;;;;;;;5.25;100.00;98731.22;5073447;28;20189;-75
2023/10/16 00:46:05;;;;;;;4.97;3.20;;;;;;;5.24;100.00;98726.13;5073585;28;20201;-75
2023/10/16 00:48:33;;;;;;;5.90;3.20;;;;;;;5.23;100.00;98716.56;5073271;28;20224;-75
2023/10/16 00:51:06;;;;;;;5.23;2.87;;;;;;;5.26;100.00;98711.78;5074727;28;20204;-75
2023/10/16 00:53:33;;;;;;;5.03;2.97;;;;;;;5.16;100.00;98713.78;5077162;28;20306;-75
2023/10/16 00:56:02;;;;;;;5.67;3.20;;;;;;;5.16;100.00;98718.25;5076736;28;20678;-75
2023/10/16 00:58:30;;;;;;;3.10;2.83;;;;;;;5.12;100.00;98703.75;5076860;28;20220;-75
2023/10/16 01:00:57;;;;;;;5.53;3.43;;;;;;;5.10;100.00;98703.09;5076440;28;20675;-75
2023/10/16 01:03:26;;;;;;;7.40;3.23;;;;;;;5.13;100.00;98702.75;5076874;28;20283;-75
2023/10/16 01:05:53;;;;;;;4.93;3.10;;;;;;;5.11;100.00;98702.91;5077455;28;20204;-75
2023/10/16 01:08:20;;;;;;;5.63;3.43;;;;;;;5.13;100.00;98697.50;5076443;28;20249;-75
2023/10/16 01:10:48;;;;;;;3.60;2.87;;;;;;;5.11;100.00;98696.84;5076985;28;20208;-75
2023/10/16 01:13:16;;;;;;;5.27;3.20;;;;;;;5.03;100.00;98696.88;5076567;28;20267;-75
2023/10/16 01:15:46;;;;;;;3.73;3.07;;;;;;;4.97;100.00;98690.44;5076754;28;20287;-75
2023/10/16 01:18:15;;;;;;;4.03;3.43;;;;;;;4.95;100.00;98688.97;5076590;28;20267;-75
2023/10/16 01:20:46;;;;;;;3.63;3.10;;;;;;;4.79;100.00;98691.66;5076869;28;20299;-75
2023/10/16 01:23:20;;;;;;;5.00;2.97;;;;;;;4.85;100.00;98690.97;5076270;28;20252;-75
2023/10/16 01:25:48;;;;;;;6.07;3.40;;;;;;;4.92;100.00;98689.28;5076242;28;20706;-75
2023/10/16 01:28:19;;;;;;;4.87;3.10;;;;;;;4.93;100.00;98688.31;5076773;28;20221;-75
2023/10/16 01:30:49;;;;;;;4.10;3.37;;;;;;;4.99;100.00;98693.75;5076515;28;20189;-75
2023/10/16 01:33:16;;;;;;;4.17;3.20;;;;;;;4.92;100.00;98689.28;5076377;28;20626;-75
2023/10/16 01:35:44;;;;;;;3.97;3.07;;;;;;;4.81;100.00;98685.22;5076202;28;20211;-75
2023/10/16 01:38:16;;;;;;;3.73;3.13;;;;;;;4.78;100.00;98684.72;5075871;28;20707;-75
2023/10/16 01:41:02;;;;;;;4.80;3.20;;;;;;;4.87;100.00;98687.19;5076469;28;20200;-75
2023/10/16 01:43:30;;;;;;;5.10;3.30;;;;;;;4.84;100.00;98687.50;5075991;28;20632;-75
2023/10/16 01:46:01;;;;;;;5.63;3.10;;;;;;;4.77;100.00;98685.72;5076133;28;20291;-75
2023/10/16 01:48:28;;;;;;;4.73;3.30;;;;;;;4.73;100.00;98679.13;5076467;28;20229;-75
2023/10/16 01:50:55;;;;;;;4.80;3.30;;;;;;;4.76;100.00;98676.16;5076129;28;20205;-75
2023/10/16 01:53:25;;;;;;;5.27;3.43;;;;;;;4.91;100.00;98693.75;5075932;28;20266;-75
2023/10/16 01:55:54;;;;;;;3.63;3.03;;;;;;;4.85;100.00;98675.16;5075823;28;20208;-75
2023/10/16 01:58:30;;;;;;;5.47;3.27;;;;;;;4.85;100.00;98675.16;5075411;28;20228;-75
2023/10/16 02:00:57;;;;;;;4.90;3.20;;;;;;;4.86;100.00;98682.06;5075165;28;20212;-75
2023/10/16 02:03:25;;;;;;;6.47;3.30;;;;;;;4.86;100.00;98671.53;5075473;28;20243;-75
2023/10/16 02:05:53;;;;;;;5.20;3.47;;;;;;;4.82;100.00;98670.22;5075454;28;20204;-75
2023/10/16 02:08:20;;;;;;;5.17;3.50;;;;;;;4.74;100.00;98663.16;5075680;28;20220;-75
2023/10/16 02:10:48;;;;;;;4.40;3.20;;;;;;;4.62;100.00;98674.22;5075735;28;20212;-75
2023/10/16 02:13:14;;;;;;;4.30;2.97;;;;;;;4.62;100.00;98668.94;5075561;28;20224;-75
2023/10/16 02:15:42;;;;;;;5.33;3.30;;;;;;;4.64;100.00;98667.78;5075567;28;20205;-75
2023/10/16 02:18:18;;;;;;;5.03;3.47;;;;;;;4.52;100.00;98663.03;5075490;28;20230;-75
2023/10/16 02:20:49;;;;;;;4.40;3.03;;;;;;;4.35;100.00;98656.97;5075576;28;20287;-75
2023/10/16 02:23:15;;;;;;;6.50;3.53;;;;;;;4.48;100.00;98656.47;5075570;28;20296;-75
2023/10/16 02:25:42;;;;;;;3.77;3.10;;;;;;;4.49;100.00;98652.84;5075539;28;20227;-75
2023/10/16 02:28:09;;;;;;;3.90;2.93;;;;;;;4.55;100.00;98654.78;5075281;28;20224;-75
2023/10/16 02:30:40;;;;;;;4.50;2.90;;;;;;;4.46;100.00;98653.16;5075940;28;20205;-75
2023/10/16 02:33:18;;;;;;;3.23;2.93;;;;;;;4.44;100.00;98655.16;5074818;28;20588;-75
2023/10/16 02:35:48;;;;;;;3.57;2.50;;;;;;;4.35;100.00;98653.50;5075173;28;20192;-75
2023/10/16 02:38:23;;;;;;;4.20;2.77;;;;;;;4.26;100.00;98652.69;5075265;28;20227;-75
2023/10/16 02:40:53;;;;;;;3.00;2.20;;;;;;;4.30;100.00;98653.19;5075610;28;20218;-75
2023/10/16 02:43:23;;;;;;;3.53;2.23;;;;;;;4.32;100.00;98656.47;5074915;28;20251;-75
2023/10/16 02:45:52;;;;;;;2.90;2.20;;;;;;;4.17;100.00;98650.22;5074754;28;20259;-75
2023/10/16 02:48:22;;;;;;;2.97;2.10;;;;;;;4.27;100.00;98656.97;5074747;28;20583;-75
2023/10/16 02:50:56;;;;;;;4.63;2.20;;;;;;;4.30;100.00;98655.81;5074871;28;20192;-75
2023/10/16 02:53:25;;;;;;;4.50;2.10;;;;;;;4.29;100.00;98660.25;5074874;28;20290;-75
2023/10/16 02:56:04;;;;;;;2.93;1.80;;;;;;;4.30;100.00;98654.00;5074551;28;20726;-75
2023/10/16 02:58:31;;;;;;;3.43;2.30;;;;;;;4.32;100.00;98657.28;5075128;28;20228;-75
2023/10/16 03:00:59;;;;;;;4.83;2.43;;;;;;;4.33;100.00;98645.78;5074348;28;20603;-75
2023/10/16 03:03:27;;;;;;;3.63;2.37;;;;;;;4.24;100.00;98652.03;5074522;28;20295;-75
2023/10/16 03:05:59;;;;;;;3.67;2.80;;;;;;;4.17;100.00;98651.06;5074412;28;20205;-75
2023/10/16 03:08:30;;;;;;;5.47;2.90;;;;;;;4.08;100.00;98659.09;5074146;28;20232;-75
2023/10/16 03:11:05;;;;;;;2.80;2.50;;;;;;;4.10;100.00;98657.09;5074491;28;20196;-75
2023/10/16 03:13:35;;;;;;;5.40;2.63;;;;;;;4.06;100.00;98650.53;5073616;28;20283;-75
2023/10/16 03:16:07;;;;;;;5.30;2.60;;;;;;;4.16;100.00;98656.47;5074558;28;20205;-75
2023/10/16 03:18:35;;;;;;;3.13;2.40;;;;;;;4.21;100.00;98659.44;5073854;28;20225;-75
2023/10/16 03:21:26;;;;;;;3.03;2.40;;;;;;;4.08;100.00;98656.47;5074323;28;20337;-75
2023/10/16 03:23:52;;;;;;;3.87;2.30;;;;;;;4.12;100.00;98655.97;5074235;28;20293;-75
2023/10/16 03:26:25;;;;;;;3.40;2.00;;;;;;;4.14;100.00;98653.16;5073447;28;20211;-75
2023/10/16 03:29:03;;;;;;;4.43;2.50;;;;;;;3.95;100.00;98649.06;5074180;28;20224;-75
2023/10/16 03:31:30;;;;;;;2.73;2.20;;;;;;;4.03;100.00;98640.34;5074332;28;20204;-75
2023/10/16 03:33:58;;;;;;;3.70;2.30;;;;;;;4.00;100.00;98640.66;5073595;28;20220;-75
2023/10/16 03:36:25;;;;;;;2.80;2.00;;;;;;;3.93;100.00;98645.75;5073805;28;20223;-75
2023/10/16 03:38:52;;;;;;;3.27;2.23;;;;;;;4.03;100.00;98648.25;5073426;28;20362;-75
2023/10/16 03:41:27;;;;;;;2.43;1.90;;;;;;;4.00;100.00;98643.28;5073775;28;20210;-75
2023/10/16 03:43:56;;;;;;;2.97;2.20;;;;;;;4.03;100.00;98641.16;5074026;28;20184;-75
2023/10/16 03:46:24;;;;;;;3.30;1.80;;;;;;;4.04;100.00;98642.81;5073986;28;20240;-75
2023/10/16 03:48:50;;;;;;;2.47;1.90;;;;;;;4.05;100.00;98636.56;5073511;28;20228;-75
2023/10/16 03:51:17;;;;;;;3.27;1.97;;;;;;;3.94;100.00;98634.25;5073439;28;20205;-75
2023/10/16 03:53:44;;;;;;;3.33;2.30;;;;;;;3.87;100.00;98633.25;5073426;28;20221;-75
2023/10/16 03:56:11;;;;;;;3.37;1.97;;;;;;;3.96;100.00;98636.72;5073680;28;20232;-75
2023/10/16 03:58:41;;;;;;;2.73;2.00;;;;;;;4.00;100.00;98630.97;5073557;28;20658;-75
2023/10/16 04:01:08;;;;;;;3.57;2.47;;;;;;;3.90;100.00;98632.13;5073235;28;20212;-75
2023/10/16 04:03:46;;;;;;;3.27;2.33;;;;;;;3.87;100.00;98630.63;5073719;28;20204;-75
2023/10/16 04:06:13;;;;;;;3.90;2.77;;;;;;;3.92;100.00;98630.13;5073642;28;20242;-75
2023/10/16 04:08:39;;;;;;;2.87;2.57;;;;;;;3.91;100.00;98631.97;5073525;28;20228;-75
2023/10/16 04:11:07;;;;;;;3.83;2.50;;;;;;;3.92;100.00;98636.22;5073416;28;20564;-75
2023/10/16 04:13:34;;;;;;;2.97;2.50;;;;;;;3.89;100.00;98635.75;5073597;28;20225;-75
2023/10/16 04:16:08;;;;;;;4.60;2.60;;;;;;;3.84;100.00;98624.88;5073433;28;20570;-75
2023/10/16 04:18:39;;;;;;;3.77;2.73;;;;;;;3.84;100.00;98638.03;5073206;28;20232;-75
2023/10/16 04:23:56;;;;;;;3.73;2.33;;;;;;;3.85;100.00;98637.84;5073942;28;20168;-75
2023/10/16 04:26:33;;;;;;;3.17;2.70;;;;;;;3.89;100.00;98631.28;5079248;28;20192;-75
2023/10/16 04:29:25;;;;;;;3.47;2.63;;;;;;;3.94;100.00;98615.81;5080024;28;20611;-75
2023/10/16 04:31:55;;;;;;;3.47;2.50;;;;;;;3.93;100.00;98616.03;5079954;28;20534;-75
2023/10/16 04:34:32;;;;;;;3.70;2.90;;;;;;;4.02;100.00;98620.28;5079571;28;20208;-75
2023/10/16 04:43:07;;;;;;;4.23;3.07;;;;;;;3.91;100.00;98600.41;5077998;28;20266;-75
2023/10/16 04:45:39;;;;;;;5.40;3.00;;;;;;;3.91;100.00;98603.03;5079330;28;20218;-75
2023/10/16 04:48:23;;;;;;;5.83;3.33;;;;;;;3.88;100.00;98599.91;5079168;28;20706;-75
2023/10/16 04:51:09;;;;;;;4.33;2.70;;;;;;;3.96;100.00;98598.09;5079823;28;20615;-75
2023/10/16 04:53:48;;;;;;;4.13;3.30;;;;;;;3.99;100.00;98596.94;5079259;28;20204;-75
2023/10/16 04:56:29;;;;;;;4.13;3.10;;;;;;;3.98;100.00;98585.59;5079561;28;20199;-75
2023/10/16 04:58:59;;;;;;;7.20;3.17;;;;;;;3.94;100.00;98579.00;5079512;28;20311;-75
2023/10/16 05:01:55;;;;;;;3.67;3.27;;;;;;;3.99;100.00;98583.78;5079391;28;20212;-75
2023/10/16 05:07:16;;;;;;;7.23;3.30;;;;;;;3.95;100.00;98578.03;5080209;28;20222;-75
2023/10/16 05:18:11;;;;;;;5.50;3.57;;;;;;;3.97;100.00;98577.88;5078517;28;20302;-75
2023/10/16 05:21:06;;;;;;;5.23;3.07;;;;;;;3.91;100.00;98578.53;5079661;28;20557;-75
2023/10/16 06:15:55;;;;;;;6.07;4.20;;;;;;;4.11;100.00;98595.63;4994559;28;20275;-75
2023/10/16 06:18:22;;;;;;;8.67;3.90;;;;;;;4.07;100.00;98600.38;5056720;28;20695;-75
2023/10/16 06:20:52;;;;;;;6.40;4.13;;;;;;;4.15;100.00;98597.75;5075228;28;20291;-75
2023/10/16 06:23:19;;;;;;;6.47;3.80;;;;;;;4.29;100.00;98597.06;5075185;28;20311;-75
2023/10/16 06:25:47;;;;;;;6.50;3.60;;;;;;;4.36;100.00;98594.59;5074656;28;20725;-75
2023/10/16 06:28:15;;;;;;;9.27;3.70;;;;;;;4.41;100.00;98608.09;5075207;28;20224;-75
2023/10/16 06:30:42;;;;;;;5.60;3.40;;;;;;;4.44;100.00;98594.59;5074917;28;20204;-75
2023/10/16 06:33:08;;;;;;;5.97;3.80;;;;;;;4.42;100.00;98609.72;5074857;28;20224;-75
2023/10/16 06:35:35;;;;;;;7.47;4.03;;;;;;;4.45;100.00;98599.69;5074951;28;20212;-76
2023/10/16 06:38:01;;;;;;;5.57;3.30;;;;;;;4.59;100.00;98608.72;5074898;28;20216;-75
2023/10/16 06:40:32;;;;;;;6.70;3.60;;;;;;;4.56;100.00;98606.44;5074873;28;20208;-75
2023/10/16 06:43:10;;;;;;;6.67;3.73;;;;;;;4.64;100.00;98606.38;5075318;28;20212;-75
2023/10/16 06:45:54;;;;;;;7.30;4.07;;;;;;;4.64;100.00;98601.13;5075374;28;20195;-75
2023/10/16 06:48:20;;;;;;;6.20;3.80;;;;;;;4.73;100.00;98597.47;5074018;28;20350;-75
2023/10/16 06:50:53;;;;;;;10.00;3.80;;;;;;;4.78;100.00;98605.69;5074688;28;20214;-75
2023/10/16 06:53:19;;;;;;;6.47;3.70;;;;;;;4.84;100.00;98597.94;5074467;28;20215;-75
2023/10/16 06:55:46;;;;;;;11.00;4.40;;;;;;;4.81;100.00;98595.66;5074068;28;20674;-75
2023/10/16 06:58:13;;;;;;;8.03;4.20;;;;;;;4.89;100.00;98602.72;5074178;28;20322;-75
2023/10/16 07:00:39;;;;;;;5.97;4.20;;;;;;;4.94;100.00;98603.84;5073939;28;20212;-75
2023/10/16 07:03:12;;;;;;;6.43;4.50;;;;;;;4.88;100.00;98606.34;5074522;28;20204;-75
2023/10/16 07:05:43;;;;;;;10.73;4.93;;;;;;;4.97;100.00;98603.50;5074689;28;20193;-75
2023/10/16 07:08:20;;;;;;;9.90;4.13;;;;;;;5.01;100.00;98594.25;5074150;28;20220;-75
2023/10/16 07:10:51;;;;;;;8.57;4.37;;;;;;;5.08;100.00;98608.41;5074357;28;20556;-75
2023/10/16 07:13:26;;;;;;;7.27;4.70;;;;;;;5.17;100.00;98604.75;5074154;28;20278;-75
2023/10/16 07:16:00;;;;;;;6.80;4.60;;;;;;;5.32;100.00;98612.72;5074343;28;20187;-75
2023/10/16 07:18:27;;;;;;;5.30;3.87;;;;;;;5.36;100.00;98606.97;5073538;28;20771;-75
2023/10/16 07:21:06;;;;;;;9.77;4.40;;;;;;;5.35;100.00;98604.50;5073623;28;20208;-75
2023/10/16 07:23:37;;;;;;;6.40;3.83;;;;;;;5.54;100.00;98610.16;5073912;28;20204;-76
2023/10/16 07:26:05;;;;;;;6.93;4.10;;;;;;;5.59;100.00;98606.97;5074068;28;20193;-75
2023/10/16 07:28:32;;;;;;;6.23;3.73;;;;;;;5.51;100.00;98610.50;5073836;28;20228;-75
2023/10/16 07:30:59;;;;;;;9.20;4.40;;;;;;;5.52;100.00;98606.06;5073917;28;20231;-75
2023/10/16 07:33:27;;;;;;;8.27;4.50;;;;;;;5.55;100.00;98600.41;5073398;28;20221;-75
2023/10/16 07:35:56;;;;;;;6.80;4.53;;;;;;;5.55;100.00;98600.41;5074061;28;20613;-75
2023/10/16 07:38:24;;;;;;;6.03;3.73;;;;;;;5.54;100.00;98602.25;5074232;28;20315;-76
2023/10/16 07:40:55;;;;;;;7.07;4.00;;;;;;;5.55;100.00;98601.25;5073440;28;20264;-75
2023/10/16 07:43:26;;;;;;;5.70;4.20;;;;;;;5.58;100.00;98603.53;5074368;28;20201;-75
2023/10/16 07:46:16;;;;;;;7.13;4.23;;;;;;;5.61;100.00;98602.38;5074331;28;20193;-75
2023/10/16 07:48:50;;;;;;;6.43;4.30;;;;;;;5.79;100.00;98602.91;5073741;28;20260;-75
2023/10/16 07:51:19;;;;;;;6.47;4.20;;;;;;;5.88;100.00;98594.78;5073506;28;20577;-76
2023/10/16 07:53:48;;;;;;;6.00;4.37;;;;;;;5.93;100.00;98599.53;5073414;28;20220;-76
2023/10/16 07:56:25;;;;;;;5.23;4.17;;;;;;;6.03;100.00;98600.13;5074154;28;20206;-76
2023/10/16 07:59:11;;;;;;;7.90;4.17;;;;;;;6.04;100.00;98596.47;5073459;28;20239;-75
2023/10/16 08:04:34;;;;;;;6.30;4.03;;;;;;;6.21;100.00;98598.00;5066494;28;20566;-76
2023/10/16 08:07:05;;;;;;;5.50;4.13;;;;;;;6.22;100.00;98594.34;5073563;28;20228;-75
2023/10/16 08:10:28;;;;;;;5.53;4.10;;;;;;;6.37;100.00;98598.66;5073312;28;20189;-76
2023/10/16 08:12:43;;;;;;;7.17;4.17;;;;;;;6.46;100.00;98597.56;5072782;28;20689;-75
2023/10/16 08:15:14;;;;;;;4.10;3.70;;;;;;;6.34;100.00;98600.84;5072797;28;20315;-75
2023/10/16 08:17:43;;;;;;;7.93;4.87;;;;;;;6.49;100.00;98601.69;5073276;28;20617;-75
2023/10/16 08:20:17;;;;;;;7.70;4.07;;;;;;;6.68;100.00;98601.97;5074017;28;20208;-76
2023/10/16 08:22:46;;;;;;;6.43;4.47;;;;;;;6.74;100.00;98603.91;5073208;28;20188;-75
2023/10/16 08:25:30;;;;;;;8.83;4.27;;;;;;;6.76;100.00;98599.25;5072820;28;20201;-76
2023/10/16 08:27:58;;;;;;;7.93;3.90;;;;;;;7.00;100.00;98606.91;5073065;28;20234;-75
2023/10/16 08:30:34;;;;;;;7.30;4.00;;;;;;;7.04;100.00;98608.19;5073209;28;20239;-75
2023/10/16 08:33:09;;;;;;;7.70;3.70;;;;;;;7.04;100.00;98608.19;5073133;28;20192;-76
2023/10/16 08:35:39;;;;;;;7.90;3.53;;;;;;;7.03;100.00;98608.38;5073256;28;20196;-76
2023/10/16 08:38:20;;;;;;;7.30;4.17;;;;;;;7.27;100.00;98608.06;5073096;28;20591;-76
2023/10/16 08:40:57;;;;;;;7.77;3.40;;;;;;;7.63;100.00;98611.53;5072977;28;20188;-76
2023/10/16 08:43:39;;;;;;;6.07;3.60;;;;;;;7.61;100.00;98611.72;5073125;28;20188;-76
2023/10/16 08:46:18;;;;;;;6.57;3.70;;;;;;;7.57;100.00;98609.66;5072443;28;20213;-76
2023/10/16 08:48:48;;;;;;;5.80;3.60;;;;;;;7.60;100.00;98615.38;5073139;28;20228;-76
2023/10/16 08:51:16;;;;;;;6.13;3.60;;;;;;;7.60;100.00;98614.59;5073250;28;20207;-76
2023/10/16 08:53:44;;;;;;;3.97;3.57;;;;;;;7.36;100.00;98628.94;5073436;28;20220;-76
2023/10/16 08:56:12;;;;;;;7.00;3.90;;;;;;;7.69;100.00;98622.22;5072949;28;20204;-75
2023/10/16 08:58:44;;;;;;;4.17;3.63;;;;;;;7.83;100.00;98616.03;5072829;28;20246;-76
2023/10/16 09:01:13;;;;;;;6.13;3.40;;;;;;;7.91;100.00;98623.03;5072648;28;20239;-76
2023/10/16 09:03:44;;;;;;;5.13;2.93;;;;;;;8.01;100.00;98619.06;5072918;28;20266;-76
2023/10/16 09:06:13;;;;;;;5.27;3.20;;;;;;;8.22;100.00;98621.78;5072872;28;20193;-76
2023/10/16 09:08:41;;;;;;;4.43;2.80;;;;;;;8.17;100.00;98618.84;5072774;28;20239;-76
2023/10/16 09:11:08;;;;;;;4.57;3.00;;;;;;;8.41;100.00;98615.81;5073121;28;20208;-76
2023/10/16 09:13:38;;;;;;;3.53;2.93;;;;;;;8.34;100.00;98608.81;5076481;28;20326;-76
2023/10/16 09:16:15;;;;;;;3.90;3.00;;;;;;;8.36;100.00;98606.78;5076548;28;20189;-76
2023/10/16 09:18:42;;;;;;;3.90;3.20;;;;;;;8.50;100.00;98608.53;5076484;28;20224;-76
2023/10/16 09:21:14;;;;;;;4.13;2.90;;;;;;;8.69;100.00;98602.56;5076264;28;20200;-76
2023/10/16 09:23:51;;;;;;;5.80;3.27;;;;;;;8.83;100.00;98602.44;5076426;28;20191;-76
2023/10/16 09:26:18;;;;;;;4.27;3.13;;;;;;;8.79;100.00;98598.53;5077270;28;20208;-76
2023/10/16 09:28:48;;;;;;;5.07;2.80;;;;;;;8.93;100.00;98596.81;5075672;28;20323;-76
2023/10/16 09:31:18;;;;;;;4.17;3.00;;;;;;;8.91;100.00;98596.19;5076574;28;20211;-76
2023/10/16 09:33:48;;;;;;;4.97;2.80;;;;;;;8.97;100.00;98600.72;5076276;28;20227;-76
2023/10/16 09:36:20;;;;;;;4.00;2.77;;;;;;;9.07;100.00;98595.88;5076217;28;20251;-76
2023/10/16 09:38:56;;;;;;;2.97;2.53;;;;;;;9.25;100.00;98597.00;5076139;28;20282;-76
2023/10/16 09:41:38;;;;;;;4.07;2.90;;;;;;;9.27;100.00;98591.47;5076633;28;20224;-76
2023/10/16 09:44:09;;;;;;;4.83;3.10;;;;;;;9.39;100.00;98585.41;5076519;28;20189;-76
2023/10/16 09:46:56;;;;;;;5.43;3.63;;;;;;;9.54;100.00;98578.09;5076004;28;20189;-76
2023/10/16 09:49:23;;;;;;;3.77;3.23;;;;;;;9.73;100.00;98580.00;5075676;28;20185;-76
2023/10/16 09:51:57;;;;;;;4.83;3.50;;;;;;;9.83;100.00;98583.06;5075159;28;20205;-76
2023/10/16 09:54:24;;;;;;;4.30;3.10;;;;;;;9.79;100.00;98575.72;5075750;28;20737;-76
2023/10/16 09:56:58;;;;;;;3.83;3.40;;;;;;;10.05;100.00;98570.50;5075828;28;20213;-76
2023/10/16 09:59:31;;;;;;;4.40;3.10;;;;;;;9.95;100.00;98567.34;5075889;28;20242;-76
2023/10/16 10:02:05;;;;;;;4.87;2.30;;;;;;;9.80;100.00;98566.72;5075911;28;20195;-76
2023/10/16 10:04:35;;;;;;;3.23;2.80;;;;;;;10.16;100.00;98561.91;5076230;28;20196;-76
2023/10/16 10:07:11;;;;;;;5.97;2.70;;;;;;;10.34;100.00;98564.75;5076592;28;20295;-76
2023/10/16 10:09:44;;;;;;;4.27;3.30;;;;;;;10.24;100.00;98561.72;5075881;28;20228;-76
2023/10/16 10:12:28;;;;;;;4.60;3.00;;;;;;;10.53;100.00;98563.94;5076047;28;20200;-76
2023/10/16 10:15:14;;;;;;;4.33;3.10;;;;;;;10.83;100.00;98571.28;5075610;28;20225;-76
2023/10/16 10:17:42;;;;;;;5.03;2.83;;;;;;;10.60;100.00;98562.09;5075426;28;20228;-76
2023/10/16 10:20:17;;;;;;;3.37;2.33;;;;;;;10.65;96.98;98555.16;5075517;28;20619;-76
2023/10/16 10:22:45;;;;;;;4.47;2.87;;;;;;;10.05;100.00;98565.19;5075203;28;20195;-76
2023/10/16 10:25:17;;;;;;;3.30;2.93;;;;;;;10.38;100.00;98560.69;5075958;28;20204;-76
2023/10/16 10:27:45;;;;;;;2.97;2.57;;;;;;;10.19;100.00;98566.81;5075301;28;20224;-75
2023/10/16 10:30:25;;;;;;;4.23;2.50;;;;;;;10.55;99.58;98560.03;5076075;28;20200;-75
2023/10/16 10:33:05;;;;;;;3.10;2.67;;;;;;;10.09;99.14;98563.75;5075058;28;20189;-75
2023/10/16 10:35:38;;;;;;;3.30;2.40;;;;;;;9.97;100.00;98558.19;5076006;28;20295;-76
2023/10/16 10:38:33;;;;;;;4.03;2.70;;;;;;;10.66;100.00;98553.28;5074945;28;20246;-76
2023/10/16 10:41:04;;;;;;;3.63;2.53;;;;;;;10.87;99.36;98559.16;5071976;28;20235;-75
2023/10/16 10:43:44;;;;;;;4.37;2.60;;;;;;;10.71;100.00;98559.63;5074578;28;20201;-75
2023/10/16 10:46:11;;;;;;;3.60;2.50;;;;;;;10.67;99.52;98552.25;5074998;28;20374;-75
2023/10/16 10:48:43;;;;;;;3.30;3.00;;;;;;;10.88;98.98;98547.53;5075102;28;20228;-76
2023/10/16 10:51:13;;;;;;;4.73;2.50;;;;;;;10.94;98.71;98545.84;5074999;28;20216;-76
2023/10/16 10:54:03;;;;;;;3.67;3.20;;;;;;;11.02;99.74;98542.97;5074335;28;20424;-76
2023/10/16 10:56:39;;;;;;;4.60;3.00;;;;;;;10.92;100.00;98534.63;5074473;28;20232;-76
2023/10/16 10:59:09;;;;;;;4.17;2.97;;;;;;;11.01;97.98;98536.03;5074509;28;20707;-76
2023/10/16 11:01:51;;;;;;;3.13;2.83;;;;;;;10.90;97.88;98539.31;5074294;28;20216;-76
2023/10/16 11:04:18;;;;;;;2.93;2.73;;;;;;;10.79;94.98;98538.13;5074731;28;20196;-76
2023/10/16 11:06:51;;;;;;;4.87;2.60;;;;;;;10.70;98.52;98530.56;5073988;28;20200;-76
2023/10/16 11:09:20;;;;;;;3.30;2.40;;;;;;;10.88;94.90;98526.25;5074537;28;20250;-76
2023/10/16 11:11:50;;;;;;;2.97;2.20;;;;;;;10.99;92.86;98530.91;5074332;28;20204;-76
2023/10/16 11:14:18;;;;;;;2.40;2.20;;;;;;;10.96;91.99;98527.84;5074447;28;20208;-76
2023/10/16 11:16:48;;;;;;;4.70;2.33;;;;;;;11.01;89.37;98514.72;5073812;28;20578;-76
2023/10/16 11:19:27;;;;;;;2.60;2.40;;;;;;;10.79;93.65;98505.38;5073965;28;20267;-76
2023/10/16 11:21:56;;;;;;;2.90;2.67;;;;;;;11.06;96.13;98496.28;5074424;28;20301;-76
2023/10/16 11:24:25;;;;;;;3.27;2.50;;;;;;;11.18;91.79;98494.59;5074018;28;20212;-76
2023/10/16 11:26:54;;;;;;;2.33;2.13;;;;;;;11.21;91.50;98488.84;5074113;28;20208;-76
2023/10/16 11:29:22;;;;;;;3.63;2.10;;;;;;;11.39;92.41;98485.50;5074143;28;20215;-76
2023/10/16 11:31:48;;;;;;;2.20;2.00;;;;;;;11.26;88.73;98475.72;5073702;28;20213;-76
2023/10/16 11:34:21;;;;;;;5.30;2.00;;;;;;;11.23;87.97;98473.50;5073415;28;20321;-76
2023/10/16 11:36:50;;;;;;;2.40;1.73;;;;;;;11.21;86.02;98462.22;5074073;28;20242;-76
2023/10/16 11:39:19;;;;;;;1.80;1.60;;;;;;;11.35;86.59;98471.78;5074273;28;20250;-76
2023/10/16 11:41:46;;;;;;;2.23;1.67;;;;;;;11.40;84.09;98466.63;5073993;28;20208;-76
2023/10/16 11:44:14;;;;;;;2.13;1.50;;;;;;;11.41;82.95;98462.13;5073968;28;20254;-75
2023/10/16 11:46:46;;;;;;;0.93;0.80;;;;;;;11.52;68.47;98459.59;5074912;28;20248;-76
2023/10/16 11:52:20;;;;;;;1.57;1.00;;;;;;;11.59;62.50;98441.75;5058086;28;20694;-75
2023/10/16 11:54:48;;;;;;;1.30;0.80;;;;;;;11.63;60.05;98439.47;5073709;28;20594;-75
2023/10/16 11:57:16;;;;;;;1.33;0.90;;;;;;;11.65;58.30;98437.41;5073837;28;20227;-75
2023/10/16 11:59:43;;;;;;;1.43;0.80;;;;;;;11.67;55.66;98440.69;5073149;28;20224;-75
2023/10/16 12:02:12;;;;;;;1.33;0.80;;;;;;;11.68;56.10;98432.47;5073295;28;20635;-75
2023/10/16 12:04:40;;;;;;;1.30;0.90;;;;;;;11.55;56.03;98423.72;5073477;28;20516;-75
2023/10/16 12:07:08;;;;;;;2.03;1.20;;;;;;;11.59;58.61;98420.44;5073150;28;20617;-75
2023/10/16 12:09:38;;;;;;;2.20;1.10;;;;;;;11.53;55.93;98428.47;5073569;28;20200;-75
2023/10/16 12:12:06;;;;;;;1.57;1.13;;;;;;;11.57;58.84;98417.16;5073604;28;20213;-76
2023/10/16 12:14:37;;;;;;;0.97;0.90;;;;;;;11.53;57.18;98413.28;5073511;28;20225;-76
2023/10/16 12:17:06;;;;;;;1.10;1.00;;;;;;;11.62;55.94;98404.03;5073194;28;20635;-76
2023/10/16 12:19:34;;;;;;;2.17;1.10;;;;;;;11.74;55.02;98399.66;5073618;28;20266;-75
2023/10/16 12:22:00;;;;;;;1.87;1.40;;;;;;;11.84;55.94;98394.63;5073222;28;20210;-75
2023/10/16 12:24:27;;;;;;;1.57;1.27;;;;;;;11.94;60.07;98397.59;5073715;28;20207;-75
2023/10/16 12:26:54;;;;;;;2.43;1.23;;;;;;;11.78;61.11;98384.84;5073293;28;20297;-75
2023/10/16 12:29:20;;;;;;;1.17;0.97;;;;;;;11.83;57.62;98389.50;5072800;28;20212;-75
2023/10/16 12:31:48;;;;;;;1.67;1.00;;;;;;;11.74;57.43;98386.31;5073135;28;20201;-75
2023/10/16 12:34:16;;;;;;;0.97;0.90;;;;;;;11.77;55.96;98388.56;5073377;28;20202;-75
2023/10/16 12:36:43;;;;;;;1.33;0.90;;;;;;;11.93;57.03;98381.88;5073048;28;20281;-75
2023/10/16 12:39:16;;;;;;;2.80;1.00;;;;;;;11.90;55.91;98380.47;5072787;28;20237;-76
2023/10/16 12:41:46;;;;;;;0.90;0.90;;;;;;;11.50;56.79;98373.81;5072885;28;20197;-76
2023/10/16 12:44:12;;;;;;;1.00;0.90;;;;;;;11.56;59.54;98359.63;5072704;28;20663;-75
2023/10/16 12:46:42;;;;;;;1.10;0.90;;;;;;;11.72;56.64;98369.75;5076033;28;20240;-76
2023/10/16 12:49:08;;;;;;;1.33;1.00;;;;;;;11.92;55.78;98367.72;5077191;28;20654;-76
2023/10/16 12:51:35;;;;;;;1.40;1.00;;;;;;;11.93;57.31;98366.69;5077058;28;20217;-75
2023/10/16 12:54:06;;;;;;;1.67;1.07;;;;;;;11.93;55.69;98366.69;5077044;28;20210;-75
2023/10/16 12:56:35;;;;;;;2.60;1.10;;;;;;;11.97;54.99;98364.38;5076695;28;20226;-75
2023/10/16 12:59:01;;;;;;;2.17;1.20;;;;;;;11.92;54.55;98353.56;5076247;28;20229;-75
2023/10/16 13:01:27;;;;;;;0.80;0.80;;;;;;;12.04;55.24;98355.31;5076921;28;20318;-75
2023/10/16 13:03:59;;;;;;;1.43;1.00;;;;;;;11.96;53.12;98350.25;5076662;28;20206;-75
2023/10/16 13:06:29;;;;;;;2.70;1.03;;;;;;;12.00;52.32;98347.97;5077759;28;20190;-75
2023/10/16 13:08:57;;;;;;;1.77;1.20;;;;;;;12.07;55.12;98348.72;5076817;28;20227;-76
2023/10/16 13:11:24;;;;;;;1.00;1.00;;;;;;;12.15;54.66;98345.75;5076591;28;20218;-75